createdAt,value
2022-11-09T00:00:59.748Z,13.25
2022-11-09T00:01:59.711Z,13.31
2022-11-09T00:02:59.699Z,13.37
2022-11-09T00:03:59.697Z,13.44
2022-11-09T00:04:59.686Z,13.42
2022-11-09T00:05:59.746Z,13.54
2022-11-09T00:06:59.729Z,13.60
2022-11-09T00:07:59.719Z,13.60
2022-11-09T00:09:05.753Z,13.68
2022-11-09T00:09:59.715Z,13.68
2022-11-09T00:10:59.648Z,13.57
2022-11-09T00:11:59.640Z,13.75
2022-11-09T00:12:59.667Z,13.75
2022-11-09T00:13:59.605Z,13.74
2022-11-09T00:14:59.589Z,13.75
2022-11-09T00:15:59.606Z,13.72
2022-11-09T00:16:59.584Z,13.71
2022-11-09T00:17:59.594Z,13.75
2022-11-09T00:18:59.589Z,13.75
2022-11-09T00:19:59.580Z,13.72
2022-11-09T00:20:59.552Z,13.74
2022-11-09T00:21:59.554Z,13.75
2022-11-09T00:22:59.538Z,13.79
2022-11-09T00:23:59.558Z,13.75
2022-11-09T00:24:59.531Z,13.78
2022-11-09T00:25:59.529Z,13.71
2022-11-09T00:26:59.496Z,13.78
2022-11-09T00:27:59.500Z,13.74
2022-11-09T00:28:59.481Z,13.79
2022-11-09T00:29:59.480Z,13.87
2022-11-09T00:30:59.714Z,13.85
2022-11-09T00:31:59.461Z,13.87
2022-11-09T00:32:59.441Z,13.86
2022-11-09T00:33:59.442Z,13.83
2022-11-09T00:34:59.457Z,13.83
2022-11-09T00:35:59.444Z,13.87
2022-11-09T00:36:59.405Z,14.00
2022-11-09T00:37:59.567Z,13.96
2022-11-09T00:38:59.394Z,13.97
2022-11-09T00:39:59.611Z,13.96
2022-11-09T00:40:59.385Z,13.97
2022-11-09T00:41:59.396Z,14.00
2022-11-09T00:42:59.360Z,13.95
2022-11-09T00:43:59.358Z,13.92
2022-11-09T00:44:59.345Z,13.92
2022-11-09T00:45:59.343Z,13.92
2022-11-09T00:46:59.332Z,13.89
2022-11-09T00:47:59.330Z,13.87
2022-11-09T00:48:59.517Z,13.92
2022-11-09T00:49:59.318Z,13.87
2022-11-09T00:50:59.303Z,13.87
2022-11-09T00:51:59.508Z,13.92
2022-11-09T00:52:59.281Z,13.96
2022-11-09T00:53:59.275Z,13.95
2022-11-09T00:54:59.279Z,14.04
2022-11-09T00:55:59.279Z,13.95
2022-11-09T00:56:59.270Z,13.96
2022-11-09T00:57:59.250Z,13.96
2022-11-09T00:58:59.242Z,13.93
2022-11-09T00:59:59.233Z,13.86
2022-11-09T01:00:59.260Z,13.81
2022-11-09T01:01:59.242Z,13.86
2022-11-09T01:02:59.221Z,13.77
2022-11-09T01:03:59.198Z,13.75
2022-11-09T01:04:59.214Z,13.75
2022-11-09T01:05:59.185Z,13.74
2022-11-09T01:06:59.205Z,13.70
2022-11-09T01:07:59.181Z,13.72
2022-11-09T01:08:59.175Z,13.74
2022-11-09T01:09:59.159Z,13.83
2022-11-09T01:10:59.161Z,13.87
2022-11-09T01:11:59.175Z,14.03
2022-11-09T01:12:59.158Z,13.99
2022-11-09T01:13:59.109Z,13.99
2022-11-09T01:14:59.119Z,14.03
2022-11-09T01:15:59.092Z,14.15
2022-11-09T01:16:59.094Z,14.07
2022-11-09T01:17:59.095Z,14.10
2022-11-09T01:18:59.078Z,14.15
2022-11-09T01:19:59.072Z,14.25
2022-11-09T01:20:59.274Z,14.28
2022-11-09T01:21:59.046Z,14.18
2022-11-09T01:22:59.064Z,14.22
2022-11-09T01:23:59.045Z,14.22
2022-11-09T01:24:59.059Z,14.29
2022-11-09T01:25:59.014Z,14.29
2022-11-09T01:26:59.228Z,14.36
2022-11-09T01:27:59.080Z,14.44
2022-11-09T01:28:59.026Z,14.45
2022-11-09T01:29:59.016Z,14.44
2022-11-09T01:30:59.023Z,14.60
2022-11-09T01:31:58.975Z,14.48
2022-11-09T01:32:59.005Z,14.45
2022-11-09T01:33:58.963Z,14.45
2022-11-09T01:34:58.966Z,14.40
2022-11-09T01:35:58.957Z,14.44
2022-11-09T01:36:58.942Z,14.41
2022-11-09T01:37:58.963Z,14.40
2022-11-09T01:38:58.912Z,14.40
2022-11-09T01:39:58.907Z,14.43
2022-11-09T01:40:58.911Z,14.45
2022-11-09T01:41:58.893Z,14.43
2022-11-09T01:42:58.892Z,14.30
2022-11-09T01:43:58.897Z,14.30
2022-11-09T01:44:58.897Z,14.28
2022-11-09T01:45:58.853Z,14.22
2022-11-09T01:46:58.847Z,14.28
2022-11-09T01:47:58.861Z,14.33
2022-11-09T01:48:58.841Z,14.28
2022-11-09T01:49:58.877Z,14.28
2022-11-09T01:50:58.837Z,14.29
2022-11-09T01:51:59.036Z,14.30
2022-11-09T01:52:58.808Z,14.26
2022-11-09T01:53:58.812Z,14.25
2022-11-09T01:54:58.788Z,14.22
2022-11-09T01:55:58.802Z,14.25
2022-11-09T01:56:58.993Z,14.23
2022-11-09T01:57:58.786Z,14.26
2022-11-09T01:58:58.772Z,14.22
2022-11-09T01:59:58.762Z,14.25
2022-11-09T02:00:58.793Z,14.26
2022-11-09T02:01:58.763Z,14.20
2022-11-09T02:02:58.731Z,14.15
2022-11-09T02:03:58.732Z,14.20
2022-11-09T02:04:58.798Z,14.15
2022-11-09T02:05:58.723Z,14.12
2022-11-09T02:06:58.767Z,14.11
2022-11-09T02:07:58.674Z,14.03
2022-11-09T02:08:58.671Z,13.96
2022-11-09T02:09:58.682Z,13.93
2022-11-09T02:10:58.663Z,13.92
2022-11-09T02:11:58.657Z,13.96
2022-11-09T02:12:58.637Z,13.85
2022-11-09T02:13:58.638Z,13.92
2022-11-09T02:14:58.644Z,13.87
2022-11-09T02:15:58.642Z,13.90
2022-11-09T02:16:58.833Z,13.78
2022-11-09T02:17:58.619Z,13.77
2022-11-09T02:18:58.622Z,13.72
2022-11-09T02:19:58.593Z,13.74
2022-11-09T02:20:58.567Z,13.59
2022-11-09T02:21:58.577Z,13.60
2022-11-09T02:22:58.588Z,13.54
2022-11-09T02:23:58.567Z,13.52
2022-11-09T02:24:58.555Z,13.59
2022-11-09T02:25:58.566Z,13.53
2022-11-09T02:26:58.523Z,13.52
2022-11-09T02:27:58.527Z,13.49
2022-11-09T02:28:58.519Z,13.56
2022-11-09T02:29:58.486Z,13.54
2022-11-09T02:30:58.497Z,13.54
2022-11-09T02:31:58.515Z,13.52
2022-11-09T02:32:58.504Z,13.54
2022-11-09T02:33:58.455Z,13.53
2022-11-09T02:34:58.672Z,13.52
2022-11-09T02:35:58.453Z,13.57
2022-11-09T02:36:58.443Z,13.56
2022-11-09T02:37:58.429Z,13.56
2022-11-09T02:38:58.426Z,13.49
2022-11-09T02:39:58.421Z,13.52
2022-11-09T02:40:58.414Z,13.54
2022-11-09T02:41:59.824Z,13.54
2022-11-09T02:42:58.400Z,13.60
2022-11-09T02:43:58.392Z,13.67
2022-11-09T02:44:58.395Z,13.63
2022-11-09T02:45:58.381Z,13.63
2022-11-09T02:46:58.368Z,13.62
2022-11-09T02:47:58.371Z,13.62
2022-11-09T02:48:58.347Z,13.68
2022-11-09T02:49:58.342Z,13.63
2022-11-09T02:50:58.346Z,13.71
2022-11-09T02:51:58.337Z,13.67
2022-11-09T02:52:58.318Z,13.72
2022-11-09T02:53:58.301Z,13.72
2022-11-09T02:54:58.299Z,13.78
2022-11-09T02:55:58.308Z,13.74
2022-11-09T02:56:58.273Z,13.79
2022-11-09T02:57:58.286Z,13.78
2022-11-09T02:58:58.265Z,13.85
2022-11-09T02:59:58.253Z,13.87
2022-11-09T03:00:58.321Z,13.81
2022-11-09T03:01:58.431Z,13.86
2022-11-09T03:02:58.219Z,13.86
2022-11-09T03:03:58.234Z,13.83
2022-11-09T03:04:58.319Z,13.86
2022-11-09T03:05:58.217Z,13.83
2022-11-09T03:06:58.380Z,13.83
2022-11-09T03:07:58.182Z,13.79
2022-11-09T03:08:58.165Z,13.86
2022-11-09T03:09:58.180Z,13.81
2022-11-09T03:10:58.190Z,13.83
2022-11-09T03:11:58.168Z,13.92
2022-11-09T03:12:58.155Z,13.79
2022-11-09T03:13:58.299Z,13.86
2022-11-09T03:14:58.178Z,13.90
2022-11-09T03:15:58.119Z,13.81
2022-11-09T03:16:58.124Z,13.75
2022-11-09T03:17:58.103Z,13.86
2022-11-09T03:18:58.106Z,13.87
2022-11-09T03:19:58.102Z,13.89
2022-11-09T03:20:58.076Z,13.81
2022-11-09T03:21:58.078Z,13.83
2022-11-09T03:22:58.081Z,13.86
2022-11-09T03:23:58.060Z,13.87
2022-11-09T03:24:58.054Z,13.90
2022-11-09T03:25:58.063Z,13.86
2022-11-09T03:26:58.107Z,13.89
2022-11-09T03:27:58.672Z,13.85
2022-11-09T03:28:58.022Z,13.83
2022-11-09T03:29:58.008Z,13.83
2022-11-09T03:30:58.044Z,13.89
2022-11-09T03:31:58.026Z,13.92
2022-11-09T03:32:58.006Z,13.90
2022-11-09T03:33:58.043Z,13.93
2022-11-09T03:34:57.975Z,13.97
2022-11-09T03:35:57.996Z,13.96
2022-11-09T03:36:57.951Z,13.97
2022-11-09T03:37:58.092Z,14.00
2022-11-09T03:38:58.047Z,13.97
2022-11-09T03:39:57.935Z,13.99
2022-11-09T03:40:57.948Z,14.04
2022-11-09T03:41:57.930Z,13.99
2022-11-09T03:42:57.901Z,13.93
2022-11-09T03:43:57.958Z,13.99
2022-11-09T03:44:57.882Z,13.97
2022-11-09T03:45:58.087Z,13.87
2022-11-09T03:46:57.933Z,13.85
2022-11-09T03:47:57.878Z,13.81
2022-11-09T03:48:57.869Z,13.79
2022-11-09T03:49:57.859Z,13.77
2022-11-09T03:50:57.827Z,13.71
2022-11-09T03:51:57.990Z,13.65
2022-11-09T03:52:57.851Z,13.67
2022-11-09T03:53:57.887Z,13.63
2022-11-09T03:54:57.877Z,13.50
2022-11-09T03:55:57.830Z,13.54
2022-11-09T03:56:57.829Z,13.54
2022-11-09T03:57:57.807Z,13.49
2022-11-09T03:58:57.856Z,13.44
2022-11-09T03:59:57.801Z,13.41
2022-11-09T04:00:57.796Z,13.37
2022-11-09T04:01:57.856Z,13.41
2022-11-09T04:02:57.728Z,13.39
2022-11-09T04:03:57.740Z,13.33
2022-11-09T04:04:57.713Z,13.47
2022-11-09T04:05:57.718Z,13.46
2022-11-09T04:06:57.747Z,13.33
2022-11-09T04:07:57.788Z,13.41
2022-11-09T04:08:57.711Z,13.39
2022-11-09T04:09:57.712Z,13.37
2022-11-09T04:10:57.752Z,13.25
2022-11-09T04:11:57.716Z,13.23
2022-11-09T04:12:57.676Z,13.20
2022-11-09T04:13:57.661Z,13.27
2022-11-09T04:14:57.627Z,13.25
2022-11-09T04:15:57.635Z,13.25
2022-11-09T04:16:57.614Z,13.15
2022-11-09T04:17:57.609Z,13.12
2022-11-09T04:18:57.618Z,13.13
2022-11-09T04:19:57.790Z,13.08
2022-11-09T04:20:57.644Z,13.04
2022-11-09T04:21:57.579Z,13.05
2022-11-09T04:22:57.572Z,13.00
2022-11-09T04:23:57.611Z,13.09
2022-11-09T04:24:57.595Z,13.01
2022-11-09T04:25:57.633Z,12.95
2022-11-09T04:26:57.529Z,12.98
2022-11-09T04:27:57.553Z,13.00
2022-11-09T04:28:57.568Z,13.05
2022-11-09T04:29:57.510Z,12.86
2022-11-09T04:30:57.521Z,12.94
2022-11-09T04:31:57.520Z,12.86
2022-11-09T04:32:57.495Z,12.93
2022-11-09T04:33:57.689Z,12.85
2022-11-09T04:34:57.482Z,12.86
2022-11-09T04:35:57.441Z,12.90
2022-11-09T04:36:57.523Z,12.85
2022-11-09T04:37:57.472Z,12.80
2022-11-09T04:38:57.447Z,12.82
2022-11-09T04:39:57.602Z,12.76
2022-11-09T04:41:57.415Z,12.82
2022-11-09T04:42:57.393Z,12.75
2022-11-09T04:43:57.382Z,12.75
2022-11-09T04:44:57.424Z,12.78
2022-11-09T04:45:57.384Z,12.78
2022-11-09T04:46:57.405Z,12.72
2022-11-09T04:47:57.358Z,12.70
2022-11-09T04:48:57.403Z,12.78
2022-11-09T04:49:57.391Z,12.76
2022-11-09T04:50:57.330Z,12.73
2022-11-09T04:51:57.335Z,12.68
2022-11-09T04:52:57.333Z,12.61
2022-11-09T04:53:57.417Z,12.67
2022-11-09T04:54:57.319Z,12.58
2022-11-09T04:55:57.359Z,12.60
2022-11-09T04:56:57.258Z,12.54
2022-11-09T04:57:57.325Z,12.65
2022-11-09T04:58:57.245Z,12.67
2022-11-09T04:59:57.253Z,12.61
2022-11-09T05:00:57.252Z,12.60
2022-11-09T05:01:57.432Z,12.62
2022-11-09T05:02:57.219Z,12.62
2022-11-09T05:03:57.395Z,12.60
2022-11-09T05:04:57.216Z,12.58
2022-11-09T05:05:57.213Z,12.65
2022-11-09T05:06:57.291Z,12.62
2022-11-09T05:07:57.207Z,12.58
2022-11-09T05:08:57.194Z,12.64
2022-11-09T05:09:57.173Z,12.61
2022-11-09T05:10:57.143Z,12.65
2022-11-09T05:11:57.185Z,12.68
2022-11-09T05:12:57.130Z,12.65
2022-11-09T05:13:57.328Z,12.58
2022-11-09T05:14:57.156Z,12.60
2022-11-09T05:15:57.173Z,12.62
2022-11-09T05:16:57.124Z,12.55
2022-11-09T05:17:57.143Z,12.58
2022-11-09T05:18:57.089Z,12.60
2022-11-09T05:19:57.143Z,12.58
2022-11-09T05:20:57.272Z,12.58
2022-11-09T05:21:57.079Z,12.64
2022-11-09T05:22:57.086Z,12.57
2022-11-09T05:23:57.055Z,12.53
2022-11-09T05:24:57.056Z,12.49
2022-11-09T05:25:57.249Z,12.60
2022-11-09T05:26:57.034Z,12.53
2022-11-09T05:27:57.104Z,12.49
2022-11-09T05:28:57.020Z,12.42
2022-11-09T05:29:57.005Z,12.43
2022-11-09T05:30:57.061Z,12.46
2022-11-09T05:31:56.988Z,12.35
2022-11-09T05:32:56.994Z,12.40
2022-11-09T05:33:56.989Z,12.31
2022-11-09T05:34:56.997Z,12.31
2022-11-09T05:35:56.957Z,12.31
2022-11-09T05:37:02.223Z,12.36
2022-11-09T05:37:56.916Z,12.39
2022-11-09T05:38:56.923Z,12.31
2022-11-09T05:39:57.108Z,12.39
2022-11-09T05:40:56.904Z,12.32
2022-11-09T05:41:56.886Z,12.28
2022-11-09T05:42:56.950Z,12.21
2022-11-09T05:43:56.877Z,12.28
2022-11-09T05:44:56.865Z,12.29
2022-11-09T05:45:56.858Z,12.32
2022-11-09T05:46:56.876Z,12.29
2022-11-09T05:47:56.846Z,12.32
2022-11-09T05:48:56.833Z,12.28
2022-11-09T05:49:56.827Z,12.25
2022-11-09T05:50:57.011Z,12.27
2022-11-09T05:51:56.802Z,12.32
2022-11-09T05:52:56.808Z,12.28
2022-11-09T05:53:56.791Z,12.24
2022-11-09T05:54:56.782Z,12.29
2022-11-09T05:55:56.768Z,12.24
2022-11-09T05:56:56.767Z,12.31
2022-11-09T05:57:56.766Z,12.21
2022-11-09T05:58:56.749Z,12.28
2022-11-09T05:59:56.771Z,12.21
2022-11-09T06:00:56.735Z,12.17
2022-11-09T06:01:56.781Z,12.13
2022-11-09T06:02:56.734Z,12.15
2022-11-09T06:03:56.728Z,12.13
2022-11-09T06:04:56.698Z,12.13
2022-11-09T06:05:56.718Z,12.20
2022-11-09T06:06:56.790Z,12.10
2022-11-09T06:07:56.700Z,12.13
2022-11-09T06:08:56.657Z,12.13
2022-11-09T06:09:56.651Z,12.13
2022-11-09T06:10:56.652Z,12.12
2022-11-09T06:11:56.647Z,12.13
2022-11-09T06:12:56.636Z,12.18
2022-11-09T06:13:56.629Z,12.07
2022-11-09T06:14:56.713Z,12.12
2022-11-09T06:15:56.671Z,12.12
2022-11-09T06:16:56.617Z,12.07
2022-11-09T06:17:56.572Z,12.15
2022-11-09T06:18:56.577Z,12.12
2022-11-09T06:19:56.771Z,12.21
2022-11-09T06:20:56.564Z,12.09
2022-11-09T06:21:56.584Z,12.12
2022-11-09T06:23:01.534Z,12.10
2022-11-09T06:23:56.549Z,12.09
2022-11-09T06:24:56.510Z,12.09
2022-11-09T06:25:56.505Z,12.03
2022-11-09T06:26:56.505Z,12.03
2022-11-09T06:27:56.495Z,12.03
2022-11-09T06:28:56.477Z,12.10
2022-11-09T06:29:56.478Z,12.04
2022-11-09T06:30:56.466Z,12.12
2022-11-09T06:31:56.492Z,12.15
2022-11-09T06:32:56.443Z,12.03
2022-11-09T06:33:56.431Z,12.10
2022-11-09T06:34:56.422Z,12.12
2022-11-09T06:35:56.771Z,12.07
2022-11-09T06:36:56.435Z,12.02
2022-11-09T06:37:56.400Z,12.13
2022-11-09T06:38:56.387Z,12.13
2022-11-09T06:39:56.379Z,12.07
2022-11-09T06:40:56.376Z,12.07
2022-11-09T06:41:56.364Z,12.13
2022-11-09T06:42:56.567Z,12.12
2022-11-09T06:43:56.358Z,12.09
2022-11-09T06:44:56.337Z,12.13
2022-11-09T06:45:56.335Z,12.12
2022-11-09T06:46:56.320Z,12.10
2022-11-09T06:47:56.322Z,12.13
2022-11-09T06:48:56.298Z,12.15
2022-11-09T06:49:56.294Z,12.22
2022-11-09T06:50:56.275Z,12.20
2022-11-09T06:51:56.301Z,12.12
2022-11-09T06:52:56.475Z,12.17
2022-11-09T06:53:56.251Z,12.15
2022-11-09T06:54:56.457Z,12.13
2022-11-09T06:55:56.237Z,12.12
2022-11-09T06:56:56.450Z,12.10
2022-11-09T06:57:56.426Z,12.07
2022-11-09T06:58:56.214Z,12.10
2022-11-09T06:59:56.214Z,12.10
2022-11-09T07:00:56.287Z,12.10
2022-11-09T07:02:01.021Z,12.13
2022-11-09T07:02:56.378Z,12.13
2022-11-09T07:03:56.390Z,12.12
2022-11-09T07:04:56.163Z,12.13
2022-11-09T07:05:56.151Z,12.18
2022-11-09T07:06:56.604Z,12.21
2022-11-09T07:07:56.140Z,12.20
2022-11-09T07:08:56.124Z,12.13
2022-11-09T07:09:56.134Z,12.15
2022-11-09T07:10:56.137Z,12.17
2022-11-09T07:11:56.121Z,12.24
2022-11-09T07:12:56.102Z,12.25
2022-11-09T07:13:57.746Z,12.24
2022-11-09T07:14:56.060Z,12.22
2022-11-09T07:15:56.057Z,12.20
2022-11-09T07:16:56.064Z,12.28
2022-11-09T07:17:56.070Z,12.20
2022-11-09T07:18:56.066Z,12.21
2022-11-09T07:19:56.251Z,12.22
2022-11-09T07:20:56.039Z,12.24
2022-11-09T07:21:56.019Z,12.18
2022-11-09T07:22:56.006Z,12.20
2022-11-09T07:23:55.967Z,12.20
2022-11-09T07:24:56.021Z,12.21
2022-11-09T07:25:55.973Z,12.24
2022-11-09T07:26:55.961Z,12.27
2022-11-09T07:27:56.150Z,12.32
2022-11-09T07:28:55.978Z,12.29
2022-11-09T07:29:55.911Z,12.32
2022-11-09T07:30:55.931Z,12.28
2022-11-09T07:31:55.921Z,12.24
2022-11-09T07:33:11.295Z,12.31
2022-11-09T07:33:55.906Z,12.46
2022-11-09T07:34:55.902Z,12.60
2022-11-09T07:35:55.934Z,12.57
2022-11-09T07:36:55.866Z,12.62
2022-11-09T07:37:55.863Z,12.57
2022-11-09T07:38:55.841Z,12.60
2022-11-09T07:39:55.871Z,12.62
2022-11-09T07:40:56.048Z,12.58
2022-11-09T07:41:55.809Z,12.58
2022-11-09T07:42:56.037Z,12.58
2022-11-09T07:43:55.994Z,12.67
2022-11-09T07:44:55.798Z,12.55
2022-11-09T07:45:55.791Z,12.67
2022-11-09T07:46:55.785Z,12.70
2022-11-09T07:47:55.753Z,12.70
2022-11-09T07:48:55.752Z,12.73
2022-11-09T07:49:55.781Z,12.78
2022-11-09T07:50:55.743Z,12.72
2022-11-09T07:51:55.774Z,12.75
2022-11-09T07:52:55.744Z,12.76
2022-11-09T07:53:55.897Z,12.75
2022-11-09T07:54:55.736Z,12.75
2022-11-09T07:55:55.910Z,12.76
2022-11-09T07:56:56.112Z,12.78
2022-11-09T07:57:55.698Z,12.78
2022-11-09T07:58:55.705Z,12.73
2022-11-09T07:59:55.657Z,12.70
2022-11-09T08:00:55.647Z,12.78
2022-11-09T08:01:55.726Z,12.78
2022-11-09T08:02:55.622Z,12.78
2022-11-09T08:03:55.811Z,12.73
2022-11-09T08:04:55.622Z,12.72
2022-11-09T08:05:55.636Z,12.73
2022-11-09T08:06:55.631Z,12.79
2022-11-09T08:07:55.610Z,12.83
2022-11-09T08:08:55.556Z,12.86
2022-11-09T08:09:55.561Z,12.91
2022-11-09T08:10:55.780Z,12.86
2022-11-09T08:11:55.543Z,12.87
2022-11-09T08:12:55.520Z,12.90
2022-11-09T08:13:55.510Z,12.91
2022-11-09T08:14:55.505Z,12.94
2022-11-09T08:15:55.548Z,12.94
2022-11-09T08:16:55.522Z,12.85
2022-11-09T08:17:55.504Z,12.93
2022-11-09T08:18:55.492Z,12.94
2022-11-09T08:19:55.503Z,12.90
2022-11-09T08:20:55.486Z,13.03
2022-11-09T08:21:55.457Z,13.03
2022-11-09T08:22:58.439Z,13.04
2022-11-09T08:23:55.449Z,12.97
2022-11-09T08:24:55.441Z,13.04
2022-11-09T08:25:55.421Z,13.04
2022-11-09T08:26:55.422Z,13.12
2022-11-09T08:27:55.408Z,13.01
2022-11-09T08:28:55.399Z,13.05
2022-11-09T08:29:55.398Z,13.05
2022-11-09T08:30:55.364Z,13.05
2022-11-09T08:31:55.367Z,13.05
2022-11-09T08:32:55.360Z,13.09
2022-11-09T08:33:55.342Z,13.11
2022-11-09T08:34:55.365Z,13.12
2022-11-09T08:35:55.324Z,13.09
2022-11-09T08:36:55.321Z,13.11
2022-11-09T08:37:55.322Z,13.13
2022-11-09T08:38:55.312Z,13.30
2022-11-09T08:39:55.311Z,13.27
2022-11-09T08:40:55.282Z,13.28
2022-11-09T08:41:55.315Z,13.35
2022-11-09T08:42:55.262Z,13.41
2022-11-09T08:43:55.269Z,13.42
2022-11-09T08:44:55.259Z,13.54
2022-11-09T08:45:55.233Z,13.54
2022-11-09T08:46:55.220Z,13.54
2022-11-09T08:47:55.221Z,13.60
2022-11-09T08:48:55.213Z,13.65
2022-11-09T08:49:55.209Z,13.65
2022-11-09T08:50:55.240Z,13.68
2022-11-09T08:51:55.182Z,13.72
2022-11-09T08:52:55.179Z,13.75
2022-11-09T08:53:55.166Z,13.77
2022-11-09T08:54:55.166Z,13.79
2022-11-09T08:55:55.164Z,13.87
2022-11-09T08:56:55.178Z,13.75
2022-11-09T08:57:55.150Z,13.77
2022-11-09T08:58:55.131Z,13.83
2022-11-09T08:59:55.113Z,13.81
2022-11-09T09:00:55.097Z,13.85
2022-11-09T09:01:55.154Z,13.96
2022-11-09T09:02:55.099Z,13.87
2022-11-09T09:03:55.088Z,13.87
2022-11-09T09:04:55.083Z,13.96
2022-11-09T09:05:55.102Z,13.99
2022-11-09T09:06:55.101Z,14.04
2022-11-09T09:07:55.034Z,14.07
2022-11-09T09:08:55.048Z,14.00
2022-11-09T09:09:55.219Z,14.17
2022-11-09T09:10:55.033Z,14.20
2022-11-09T09:11:55.030Z,14.33
2022-11-09T09:12:55.022Z,14.45
2022-11-09T09:13:55.015Z,14.37
2022-11-09T09:14:54.989Z,14.55
2022-11-09T09:15:54.977Z,14.47
2022-11-09T09:16:55.021Z,14.51
2022-11-09T09:17:54.952Z,14.59
2022-11-09T09:18:54.989Z,14.60
2022-11-09T09:19:54.951Z,14.44
2022-11-09T09:20:54.929Z,14.41
2022-11-09T09:21:54.921Z,14.44
2022-11-09T09:22:54.952Z,14.41
2022-11-09T09:23:54.917Z,14.44
2022-11-09T09:24:54.938Z,14.44
2022-11-09T09:25:58.549Z,14.40
2022-11-09T09:26:54.884Z,14.43
2022-11-09T09:27:54.898Z,14.45
2022-11-09T09:28:54.873Z,14.59
2022-11-09T09:29:54.892Z,14.60
2022-11-09T09:30:54.862Z,14.69
2022-11-09T09:31:54.848Z,14.70
2022-11-09T09:32:54.896Z,14.92
2022-11-09T09:33:54.839Z,15.07
2022-11-09T09:34:54.821Z,15.33
2022-11-09T09:35:54.810Z,15.44
2022-11-09T09:36:54.804Z,15.51
2022-11-09T09:37:54.787Z,15.62
2022-11-09T09:38:54.831Z,15.67
2022-11-09T09:39:54.808Z,15.98
2022-11-09T09:40:54.765Z,16.38
2022-11-09T09:41:54.782Z,16.65
2022-11-09T09:42:54.978Z,16.69
2022-11-09T09:43:54.795Z,16.65
2022-11-09T09:44:54.768Z,16.58
2022-11-09T09:45:55.149Z,16.38
2022-11-09T09:46:54.741Z,16.31
2022-11-09T09:47:54.726Z,16.13
2022-11-09T09:48:54.723Z,16.01
2022-11-09T09:49:54.834Z,15.90
2022-11-09T09:50:54.719Z,15.84
2022-11-09T09:51:54.703Z,15.58
2022-11-09T09:53:22.014Z,15.58
2022-11-09T09:53:54.692Z,15.54
2022-11-09T09:54:54.690Z,15.51
2022-11-09T09:55:54.692Z,15.49
2022-11-09T09:56:54.916Z,15.42
2022-11-09T09:57:54.672Z,15.43
2022-11-09T09:58:54.674Z,15.29
2022-11-09T09:59:54.689Z,15.35
2022-11-09T10:00:54.670Z,15.29
2022-11-09T10:01:54.638Z,15.33
2022-11-09T10:02:55.046Z,15.36
2022-11-09T10:03:54.841Z,15.33
2022-11-09T10:04:54.908Z,15.33
2022-11-09T10:05:54.617Z,15.31
2022-11-09T10:06:54.654Z,15.36
2022-11-09T10:07:54.811Z,15.28
2022-11-09T10:08:54.598Z,15.33
2022-11-09T10:09:54.591Z,15.33
2022-11-09T10:10:54.845Z,15.24
2022-11-09T10:11:59.861Z,15.27
2022-11-09T10:12:54.561Z,15.19
2022-11-09T10:13:54.588Z,15.19
2022-11-09T10:14:54.795Z,15.11
2022-11-09T10:15:54.772Z,15.00
2022-11-09T10:16:54.538Z,15.02
2022-11-09T10:17:54.717Z,15.09
2022-11-09T10:18:54.552Z,15.04
2022-11-09T10:19:54.714Z,15.04
2022-11-09T10:20:54.513Z,15.11
2022-11-09T10:21:54.503Z,14.99
2022-11-09T10:22:54.516Z,14.99
2022-11-09T10:23:54.485Z,15.02
2022-11-09T10:25:18.530Z,15.02
2022-11-09T10:26:14.448Z,15.14
2022-11-09T10:26:54.463Z,15.18
2022-11-09T10:27:54.469Z,15.19
2022-11-09T10:29:15.014Z,15.25
2022-11-09T10:29:54.435Z,15.27
2022-11-09T10:30:54.438Z,15.24
2022-11-09T10:31:54.646Z,15.29
2022-11-09T10:32:54.551Z,15.35
2022-11-09T10:33:54.806Z,15.43
2022-11-09T10:34:54.745Z,15.29
2022-11-09T10:35:54.489Z,15.36
2022-11-09T10:36:54.625Z,15.29
2022-11-09T10:37:54.371Z,15.42
2022-11-09T10:38:54.593Z,15.42
2022-11-09T10:39:54.631Z,15.49
2022-11-09T10:40:54.541Z,15.44
2022-11-09T10:41:54.341Z,15.40
2022-11-09T10:42:54.354Z,15.46
2022-11-09T10:43:54.358Z,15.57
2022-11-09T10:44:54.337Z,15.54
2022-11-09T10:45:54.338Z,15.55
2022-11-09T10:46:54.316Z,15.49
2022-11-09T10:47:54.311Z,15.52
2022-11-09T10:48:54.295Z,15.57
2022-11-09T10:49:54.326Z,15.62
2022-11-09T10:50:54.302Z,15.61
2022-11-09T10:51:54.371Z,15.62
2022-11-09T10:52:54.269Z,15.62
2022-11-09T10:53:55.162Z,15.77
2022-11-09T10:54:54.560Z,15.68
2022-11-09T10:55:54.474Z,15.64
2022-11-09T10:57:05.563Z,15.82
2022-11-09T10:57:54.235Z,15.80
2022-11-09T10:58:54.403Z,15.90
2022-11-09T10:59:54.340Z,15.88
2022-11-09T11:00:54.262Z,16.00
2022-11-09T11:01:58.172Z,16.00
2022-11-09T11:02:54.201Z,15.95
2022-11-09T11:03:54.240Z,15.97
2022-11-09T11:04:54.470Z,16.00
2022-11-09T11:05:54.394Z,16.02
2022-11-09T11:06:54.430Z,16.02
2022-11-09T11:07:54.164Z,16.04
2022-11-09T11:08:54.178Z,16.04
2022-11-09T11:09:54.156Z,16.02
2022-11-09T11:11:06.536Z,16.01
2022-11-09T11:11:54.136Z,15.97
2022-11-09T11:12:54.120Z,15.95
2022-11-09T11:13:54.115Z,16.04
2022-11-09T11:14:54.101Z,16.00
2022-11-09T11:15:54.111Z,16.05
2022-11-09T11:16:54.119Z,16.02
2022-11-09T11:17:54.113Z,15.98
2022-11-09T11:18:54.092Z,15.94
2022-11-09T11:19:54.090Z,15.97
2022-11-09T11:20:54.116Z,15.94
2022-11-09T11:21:54.056Z,15.98
2022-11-09T11:22:54.057Z,15.95
2022-11-09T11:23:54.055Z,16.00
2022-11-09T11:24:54.045Z,16.04
2022-11-09T11:25:54.042Z,16.02
2022-11-09T11:26:54.035Z,15.97
2022-11-09T11:27:54.037Z,15.98
2022-11-09T11:28:54.146Z,15.95
2022-11-09T11:29:54.008Z,16.01
2022-11-09T11:30:54.025Z,16.00
2022-11-09T11:31:54.023Z,15.92
2022-11-09T11:32:53.996Z,15.95
2022-11-09T11:33:54.101Z,16.00
2022-11-09T11:35:00.336Z,15.98
2022-11-09T11:35:54.025Z,15.98
2022-11-09T11:36:53.951Z,15.97
2022-11-09T11:37:53.939Z,15.97
2022-11-09T11:38:54.205Z,16.04
2022-11-09T11:39:53.967Z,16.09
2022-11-09T11:40:53.953Z,16.17
2022-11-09T11:41:53.912Z,16.23
2022-11-09T11:42:53.924Z,16.35
2022-11-09T11:43:53.935Z,16.49
2022-11-09T11:45:07.163Z,16.50
2022-11-09T11:45:53.885Z,16.60
2022-11-09T11:46:53.887Z,16.69
2022-11-09T11:47:54.104Z,16.81
2022-11-09T11:48:53.867Z,16.79
2022-11-09T11:49:53.873Z,16.79
2022-11-09T11:50:54.061Z,16.89
2022-11-09T11:51:54.074Z,16.91
2022-11-09T11:52:53.839Z,16.91
2022-11-09T11:53:53.853Z,16.89
2022-11-09T11:54:53.840Z,16.93
2022-11-09T11:55:53.820Z,16.86
2022-11-09T11:56:53.817Z,16.79
2022-11-09T11:57:53.807Z,16.87
2022-11-09T11:58:53.833Z,16.83
2022-11-09T11:59:53.805Z,16.89
2022-11-09T12:00:53.791Z,16.86
2022-11-09T12:01:53.785Z,16.74
2022-11-09T12:02:54.068Z,16.78
2022-11-09T12:03:53.765Z,16.89
2022-11-09T12:04:53.764Z,16.83
2022-11-09T12:05:53.770Z,16.87
2022-11-09T12:06:53.819Z,17.01
2022-11-09T12:07:57.172Z,17.12
2022-11-09T12:08:53.755Z,17.09
2022-11-09T12:09:53.868Z,17.24
2022-11-09T12:10:53.728Z,17.23
2022-11-09T12:11:53.723Z,17.23
2022-11-09T12:12:53.719Z,17.23
2022-11-09T12:13:53.716Z,17.20
2022-11-09T12:14:53.703Z,17.15
2022-11-09T12:15:53.703Z,16.97
2022-11-09T12:16:53.686Z,16.94
2022-11-09T12:17:53.927Z,16.97
2022-11-09T12:18:53.693Z,17.04
2022-11-09T12:19:53.695Z,17.12
2022-11-09T12:20:53.668Z,17.06
2022-11-09T12:21:53.873Z,16.96
2022-11-09T12:22:53.659Z,17.02
2022-11-09T12:23:53.680Z,16.94
2022-11-09T12:24:53.636Z,16.86
2022-11-09T12:25:53.638Z,16.89
2022-11-09T12:27:10.685Z,16.87
2022-11-09T12:27:53.621Z,16.83
2022-11-09T12:28:53.694Z,16.93
2022-11-09T12:29:53.606Z,16.93
2022-11-09T12:30:53.611Z,16.91
2022-11-09T12:31:53.612Z,16.96
2022-11-09T12:32:53.596Z,16.96
2022-11-09T12:33:53.604Z,16.96
2022-11-09T12:34:53.571Z,16.90
2022-11-09T12:35:53.630Z,16.96
2022-11-09T12:36:53.573Z,17.08
2022-11-09T12:37:53.558Z,17.15
2022-11-09T12:38:53.759Z,16.94
2022-11-09T12:39:53.829Z,16.96
2022-11-09T12:40:53.549Z,16.86
2022-11-09T12:41:53.550Z,16.86
2022-11-09T12:42:53.547Z,16.87
2022-11-09T12:43:53.521Z,16.93
2022-11-09T12:44:53.508Z,16.81
2022-11-09T12:45:53.518Z,16.72
2022-11-09T12:46:53.734Z,16.71
2022-11-09T12:47:53.494Z,16.68
2022-11-09T12:48:53.487Z,16.57
2022-11-09T12:49:53.481Z,16.51
2022-11-09T12:50:53.486Z,16.53
2022-11-09T12:51:58.703Z,16.47
2022-11-09T12:52:53.671Z,16.41
2022-11-09T12:53:53.675Z,16.35